NCAR-RAP Real-Time Weather Data

Output produced by METARs form (10 April 2020  06:41 UTC)
found at http://weather.rap.ucar.edu/surface/
 
KPIH 100553Z AUTO 09004KT 10SM CLR 10/01 A3000 RMK AO2 SLP135 T01000011 10211 20100 51017
KPIH 100453Z AUTO 17017G24KT 10SM CLR 12/01 A2999 RMK AO2 PK WND 17029/0423 SLP134 T01170011
KPIH 100353Z 16015G21KT 10SM CLR 11/01 A2998 RMK AO2 SLP139 T01110011
KPIH 100253Z 13003KT 10SM CLR 12/02 A2994 RMK AO2 SLP130 T01220017 53007
KPIH 100153Z 19014KT 10SM CLR 15/02 A2993 RMK AO2 SLP126 T01500017
KPIH 100053Z 31004KT 10SM CLR 20/M03 A2991 RMK AO2 SLP116 T02001028 $
KPIH 092353Z 32007KT 10SM CLR 21/M06 A2992 RMK AO2 SLP115 T02061056 10217 20167 56012 $
KPIH 092253Z 35008KT 10SM CLR 22/M03 A2992 RMK AO2 SLP117 T02171033 $
KPIH 092153Z 32007KT 10SM CLR 21/M03 A2994 RMK AO2 SLP119 T02111033 $
KPIH 092053Z VRB05KT 10SM CLR 21/M03 A2996 RMK AO2 SLP127 T02061033 56021 $
KPIH 091953Z 00000KT 10SM CLR 19/M04 A2998 RMK AO2 SLP136 T01941039 $
KPIH 091853Z 03005KT 10SM CLR 18/M03 A3001 RMK AO2 SLP143 T01831033 $
KPIH 091753Z 02012KT 10SM CLR 17/M02 A3003 RMK AO2 SLP150 T01671017 10172 21022 58012 $
KPIH 091653Z 03004KT 10SM CLR 13/01 A3005 RMK AO2 SLP159 T01330011 $
KPIH 091553Z 36005KT 10SM CLR 09/01 A3006 RMK AO2 SLP168 T00890006 $
KPIH 091453Z 00000KT 10SM CLR 04/M01 A3007 RMK AO2 SLP175 T00441011 50003 $
KPIH 091353Z AUTO 20003KT 10SM CLR 01/M02 A3007 RMK AO2 SLP178 T00061022 $
KPIH 091253Z AUTO 05003KT 10SM CLR M02/M04 A3006 RMK AO2 SLP172 T10171039 $
KPIH 091153Z AUTO 27004KT 10SM CLR 00/M03 A3006 RMK AO2 SLP169 T00001033 10067 21011 56010 $
KPIH 091053Z AUTO 32003KT 10SM CLR M01/M03 A3007 RMK AO2 SLP171 T10061028 $
KPIH 090953Z AUTO 02007KT 10SM CLR 01/M03 A3008 RMK AO2 SLP176 T00061028 $
KPIH 090853Z AUTO 09006KT 10SM CLR 02/M02 A3009 RMK AO2 SLP177 T00171022 58002 $